Time;durP1;ratioP1;P1;durP2;ratioP2;P2;SDS_P1;SDS_P2;PMS_P1;PMS_P2;Temp;Humidity;BMP_temperature;BMP_pressure;BME280_temperature;BME280_humidity;BME280_pressure;Samples;Min_cycle;Max_cycle;Signal;HPM_P1;HPM_P2
2022/01/25 00:30:27;;;;;;;72.57;22.30;;;;;;;1.97;100.00;100780.66;8327833;28;20381;-72
2022/01/25 00:34:27;;;;;;;109.85;23.92;;;;;;;1.99;100.00;100778.59;8331454;28;20096;-73
2022/01/25 00:38:28;;;;;;;101.95;22.23;;;;;;;1.99;100.00;100783.13;8332064;28;20041;-73
2022/01/25 00:42:29;;;;;;;141.85;22.45;;;;;;;1.99;100.00;100778.59;8331783;28;20056;-73
2022/01/25 00:46:30;;;;;;;198.65;22.45;;;;;;;2.03;100.00;100785.13;8329974;28;20592;-72
2022/01/25 00:50:41;;;;;;;185.07;20.98;;;;;;;2.06;100.00;100776.72;8331343;28;20493;-72
2022/01/25 00:54:43;;;;;;;229.27;20.20;;;;;;;2.07;100.00;100770.34;8330189;28;20052;-72
2022/01/25 00:58:44;;;;;;;197.88;19.58;;;;;;;2.06;100.00;100768.72;8329830;28;20084;-72
2022/01/25 01:02:45;;;;;;;171.93;20.20;;;;;;;2.05;100.00;100777.75;8330926;28;20049;-73
2022/01/25 01:06:47;;;;;;;209.05;19.88;;;;;;;2.07;100.00;100770.34;8330579;28;20052;-73
2022/01/25 01:10:48;;;;;;;257.02;19.15;;;;;;;2.06;100.00;100770.59;8327752;28;20053;-75
2022/01/25 01:44:27;;;;;;;127.25;17.67;;;;;;;2.09;100.00;100741.66;8328217;28;20049;-73
2022/01/25 01:48:36;;;;;;;59.55;18.98;;;;;;;2.07;100.00;100738.38;8329305;28;20050;-72
2022/01/25 01:52:37;;;;;;;111.32;19.98;;;;;;;2.10;100.00;100743.28;8327212;28;20046;-73
2022/01/25 01:56:39;;;;;;;207.25;20.45;;;;;;;2.13;100.00;100726.88;8308924;28;20572;-72
2022/01/25 02:00:43;;;;;;;241.57;19.45;;;;;;;2.15;100.00;100712.50;8316212;28;20461;-73
2022/01/25 02:04:43;;;;;;;114.93;19.58;;;;;;;2.16;100.00;100714.16;8328917;28;20057;-73
2022/01/25 02:08:44;;;;;;;194.85;19.92;;;;;;;2.16;100.00;100703.50;8329167;28;20065;-73
2022/01/25 02:12:48;;;;;;;82.85;16.63;;;;;;;2.17;100.00;100710.47;8327332;28;20169;-73
2022/01/25 02:25:14;;;;;;;174.98;17.02;;;;;;;2.18;100.00;100706.75;8328112;28;20054;-73
2022/01/25 02:29:15;;;;;;;93.07;17.90;;;;;;;2.19;100.00;100703.03;8328355;28;20049;-73
2022/01/25 02:33:16;;;;;;;104.03;16.90;;;;;;;2.18;100.00;100698.75;8328977;28;20135;-72
2022/01/25 02:37:17;;;;;;;221.68;17.70;;;;;;;2.21;100.00;100698.34;8328982;28;20132;-72
2022/01/25 02:41:18;;;;;;;208.35;17.63;;;;;;;2.21;100.00;100685.00;8328599;28;20046;-72
2022/01/25 02:45:19;;;;;;;92.68;17.05;;;;;;;2.20;100.00;100694.03;8327741;28;20136;-72
2022/01/25 02:49:20;;;;;;;196.38;18.17;;;;;;;2.18;100.00;100690.75;8328181;28;20053;-73
2022/01/25 02:53:20;;;;;;;130.73;17.70;;;;;;;2.20;100.00;100683.38;8331224;28;20123;-72
2022/01/25 02:57:22;;;;;;;66.38;16.77;;;;;;;2.21;100.00;100690.34;8334727;28;20061;-72
2022/01/25 03:01:23;;;;;;;93.65;17.05;;;;;;;2.22;100.00;100676.78;8334270;28;20100;-73
2022/01/25 03:05:24;;;;;;;65.20;16.90;;;;;;;2.19;100.00;100681.72;8333933;28;20065;-73
2022/01/25 03:09:25;;;;;;;34.65;13.70;;;;;;;2.21;100.00;100679.66;8332861;28;20085;-73
2022/01/25 03:13:34;;;;;;;29.02;12.48;;;;;;;2.19;100.00;100665.72;8334447;28;20069;-73
2022/01/25 03:17:44;;;;;;;32.88;13.40;;;;;;;2.18;100.00;100669.44;8334168;28;20096;-72
2022/01/25 03:21:45;;;;;;;27.63;12.18;;;;;;;2.19;100.00;100669.22;8333765;28;20050;-73
2022/01/25 03:25:49;;;;;;;25.55;10.98;;;;;;;2.18;100.00;100672.09;8305065;28;20095;-72
2022/01/25 03:29:50;;;;;;;24.58;11.60;;;;;;;2.19;100.00;100671.06;8334414;28;20050;-73
2022/01/25 03:33:51;;;;;;;27.83;11.95;;;;;;;2.19;100.00;100673.72;8333918;28;20084;-73
2022/01/25 03:37:52;;;;;;;26.33;11.32;;;;;;;2.23;100.00;100662.41;8332420;28;20103;-72
2022/01/25 03:41:53;;;;;;;31.45;13.75;;;;;;;2.23;100.00;100661.59;8332419;28;20061;-73
2022/01/25 03:46:01;;;;;;;32.75;13.43;;;;;;;2.22;100.00;100660.78;8321476;28;20049;-73
2022/01/25 03:50:02;;;;;;;33.75;13.85;;;;;;;2.24;100.00;100668.56;8320505;28;20064;-73
2022/01/25 03:54:04;;;;;;;26.88;12.88;;;;;;;2.19;100.00;100661.22;8330785;28;20054;-73
2022/01/25 03:58:05;;;;;;;40.50;13.25;;;;;;;2.20;100.00;100667.38;8326166;28;20072;-73
2022/01/25 04:02:06;;;;;;;41.88;12.60;;;;;;;2.23;100.00;100664.25;8333862;28;20056;-73
2022/01/25 04:06:07;;;;;;;34.83;14.15;;;;;;;2.18;100.00;100659.59;8319130;28;20053;-73
2022/01/25 04:10:09;;;;;;;31.67;12.43;;;;;;;2.22;100.00;100657.31;8283730;28;20071;-73
2022/01/25 04:14:09;;;;;;;55.83;13.27;;;;;;;2.27;100.00;100657.50;8329336;28;20396;-72
2022/01/25 04:26:16;;;;;;;38.05;13.18;;;;;;;2.23;100.00;100653.59;8329106;28;20559;-72
2022/01/25 04:30:16;;;;;;;31.75;12.73;;;;;;;2.20;100.00;100656.72;8328587;28;20485;-73
2022/01/25 04:56:20;;;;;;;24.88;10.10;;;;;;;2.21;100.00;100634.38;8328111;28;20485;-73
2022/01/25 05:00:17;;;;;;;22.33;11.07;;;;;;;2.17;100.00;100631.28;8326454;28;20092;-73
2022/01/25 05:04:25;;;;;;;33.45;11.88;;;;;;;2.16;100.00;100639.53;8327601;28;20533;-74
2022/01/25 05:16:59;;;;;;;24.13;10.85;;;;;;;2.21;100.00;100631.69;8261595;28;20042;-73
2022/01/25 05:25:19;;;;;;;22.92;11.93;;;;;;;2.19;100.00;100639.91;8227974;28;20137;-72
2022/01/25 05:29:20;;;;;;;24.90;11.82;;;;;;;2.22;100.00;100638.66;8223248;28;20062;-72
2022/01/25 05:33:21;;;;;;;24.67;11.65;;;;;;;2.23;100.00;100629.59;8229000;28;20058;-73
2022/01/25 05:37:22;;;;;;;25.90;11.95;;;;;;;2.22;100.00;100622.66;8181071;28;20451;-73
2022/01/25 05:41:27;;;;;;;26.10;11.32;;;;;;;2.22;100.00;100633.34;8229195;28;20047;-73
2022/01/25 05:45:50;;;;;;;34.10;12.10;;;;;;;2.19;100.00;100655.06;8188322;28;20162;-72
2022/01/25 05:49:51;;;;;;;19.13;9.02;;;;;;;2.13;100.00;100638.91;8228555;28;20051;-73
2022/01/25 05:53:52;;;;;;;15.73;7.47;;;;;;;2.09;100.00;100643.06;8274603;28;20125;-73
2022/01/25 05:57:53;;;;;;;15.27;7.80;;;;;;;2.03;100.00;100649.25;8262301;28;20049;-73
2022/01/25 06:01:53;;;;;;;14.88;7.70;;;;;;;2.01;100.00;100627.31;8297135;28;20070;-73
2022/01/25 06:05:54;;;;;;;16.17;8.07;;;;;;;2.03;100.00;100625.25;8296792;28;20053;-73
2022/01/25 06:09:55;;;;;;;13.52;6.55;;;;;;;1.94;100.00;100626.56;8296494;28;20088;-73
2022/01/25 06:13:56;;;;;;;14.73;7.00;;;;;;;1.95;100.00;100617.53;8296552;28;20054;-74
2022/01/25 06:17:56;;;;;;;16.75;7.20;;;;;;;1.94;100.00;100615.91;8296328;28;20104;-73
2022/01/25 06:21:58;;;;;;;13.13;7.13;;;;;;;1.90;100.00;100622.69;8313051;28;20053;-73
2022/01/25 06:25:58;;;;;;;16.55;7.38;;;;;;;1.89;100.00;100613.06;8296608;28;20475;-72
2022/01/25 06:29:59;;;;;;;14.70;7.60;;;;;;;1.88;100.00;100616.75;8295653;28;20125;-72
2022/01/25 06:34:00;;;;;;;14.98;7.25;;;;;;;1.85;100.00;100611.84;8296042;28;20114;-72
2022/01/25 06:38:01;;;;;;;16.75;7.60;;;;;;;1.82;100.00;100612.28;8309116;28;20048;-73
2022/01/25 06:42:02;;;;;;;16.17;7.85;;;;;;;1.78;100.00;100605.75;8335057;28;20523;-73
2022/01/25 06:46:03;;;;;;;14.00;6.75;;;;;;;1.77;100.00;100603.31;8327105;28;20058;-73
2022/01/25 06:50:05;;;;;;;17.88;8.32;;;;;;;1.81;100.00;100600.00;8296092;28;20490;-73
2022/01/25 06:54:06;;;;;;;14.70;7.82;;;;;;;1.84;100.00;100612.06;8295665;28;20053;-73
2022/01/25 06:58:08;;;;;;;18.25;8.90;;;;;;;1.83;100.00;100608.59;8328584;28;20049;-73
2022/01/25 07:02:09;;;;;;;19.85;8.45;;;;;;;1.84;100.00;100612.91;8328138;28;20045;-73
2022/01/25 07:06:09;;;;;;;18.38;8.80;;;;;;;1.83;100.00;100624.56;8312862;28;20058;-73
2022/01/25 07:10:11;;;;;;;15.88;8.52;;;;;;;1.85;100.00;100619.84;8295508;28;20074;-73
2022/01/25 07:14:12;;;;;;;18.75;9.63;;;;;;;1.87;100.00;100601.78;8295434;28;20054;-72
2022/01/25 07:18:15;;;;;;;21.15;10.60;;;;;;;1.89;100.00;100607.75;8295245;28;20050;-73
2022/01/25 07:22:16;;;;;;;17.92;9.30;;;;;;;1.85;100.00;100617.16;8300850;28;20058;-73
2022/01/25 07:26:17;;;;;;;22.23;9.63;;;;;;;1.85;100.00;100611.84;8327995;28;20056;-72
2022/01/25 07:30:18;;;;;;;17.02;8.52;;;;;;;1.82;100.00;100622.94;8328164;28;20084;-73
2022/01/25 07:34:19;;;;;;;18.92;9.05;;;;;;;1.80;100.00;100619.66;8327839;28;20540;-73
2022/01/25 07:38:20;;;;;;;19.50;9.23;;;;;;;1.74;100.00;100599.22;8328317;28;20069;-73
2022/01/25 07:42:21;;;;;;;18.85;9.63;;;;;;;1.81;100.00;100599.16;8326364;28;20157;-73
2022/01/25 07:46:22;;;;;;;20.60;8.85;;;;;;;1.83;100.00;100603.25;8300987;28;20516;-73
2022/01/25 07:50:23;;;;;;;19.70;10.25;;;;;;;1.79;100.00;100607.41;8301259;28;20049;-73
2022/01/25 07:54:25;;;;;;;19.60;9.70;;;;;;;1.79;100.00;100612.72;8303406;28;20424;-73
2022/01/25 07:58:26;;;;;;;22.98;9.45;;;;;;;1.75;100.00;100603.50;8333341;28;20080;-74
2022/01/25 08:02:27;;;;;;;21.60;9.32;;;;;;;1.74;100.00;100609.88;8324839;28;20042;-73
2022/01/25 08:06:28;;;;;;;19.73;9.77;;;;;;;1.78;100.00;100605.75;8299433;28;20054;-72
2022/01/25 08:10:29;;;;;;;21.55;9.27;;;;;;;1.80;100.00;100614.34;8315420;28;20049;-72
2022/01/25 08:14:30;;;;;;;18.50;8.75;;;;;;;1.76;100.00;100612.31;8299784;28;20054;-72
2022/01/25 08:18:30;;;;;;;22.45;9.70;;;;;;;1.86;100.00;100613.47;8299883;28;20137;-72
2022/01/25 08:22:33;;;;;;;19.23;9.00;;;;;;;1.76;100.00;100618.47;8309996;28;20064;-73
2022/01/25 08:26:34;;;;;;;17.80;8.25;;;;;;;1.77;100.00;100625.44;8332324;28;20053;-72
2022/01/25 08:30:35;;;;;;;20.05;8.98;;;;;;;1.76;100.00;100623.78;8332587;28;20440;-73
2022/01/25 08:34:35;;;;;;;19.73;8.75;;;;;;;1.75;100.00;100627.47;8332201;28;20060;-72
2022/01/25 08:38:36;;;;;;;20.65;9.20;;;;;;;1.72;100.00;100622.59;8330605;28;20061;-73
2022/01/25 08:42:37;;;;;;;21.77;9.07;;;;;;;1.82;100.00;100617.63;8319527;28;20061;-72
2022/01/25 08:46:39;;;;;;;21.77;9.85;;;;;;;1.70;100.00;100629.97;8316528;28;20046;-72
2022/01/25 08:50:40;;;;;;;23.30;9.60;;;;;;;1.70;100.00;100627.31;8296556;28;20532;-74
2022/01/25 08:54:41;;;;;;;24.27;10.15;;;;;;;1.72;100.00;100627.09;8331663;28;20056;-73
2022/01/25 08:58:41;;;;;;;25.33;10.50;;;;;;;1.70;100.00;100632.63;8329775;28;20069;-73
2022/01/25 09:02:42;;;;;;;28.90;11.45;;;;;;;1.79;100.00;100626.03;8329066;28;20041;-72
2022/01/25 09:06:43;;;;;;;26.00;11.50;;;;;;;1.88;100.00;100619.41;8336822;28;20167;-73
2022/01/25 09:10:44;;;;;;;26.83;10.93;;;;;;;1.99;100.00;100629.38;8354727;28;20469;-73
2022/01/25 09:14:45;;;;;;;27.30;11.27;;;;;;;2.05;100.00;100628.53;8333176;28;20059;-72
2022/01/25 09:18:46;;;;;;;27.00;12.13;;;;;;;2.13;100.00;100630.91;8330610;28;20045;-72
2022/01/25 09:22:46;;;;;;;25.83;10.43;;;;;;;2.21;100.00;100631.69;8298258;28;20080;-73
2022/01/25 09:26:47;;;;;;;27.05;11.82;;;;;;;2.30;100.00;100614.38;8297742;28;20057;-73
2022/01/25 09:30:48;;;;;;;32.92;12.98;;;;;;;2.32;100.00;100617.66;8297944;28;20429;-72
2022/01/25 09:34:49;;;;;;;26.35;11.90;;;;;;;2.31;100.00;100619.50;8332137;28;20042;-73
2022/01/25 09:38:55;;;;;;;29.38;11.20;;;;;;;2.36;100.00;100613.53;8352071;28;20051;-72
2022/01/25 09:42:57;;;;;;;26.55;10.43;;;;;;;2.45;100.00;100606.88;8330083;28;20054;-72
2022/01/25 09:46:58;;;;;;;31.38;12.52;;;;;;;2.48;100.00;100595.78;8329724;28;20132;-73
2022/01/25 09:50:59;;;;;;;29.65;11.75;;;;;;;2.48;100.00;100601.13;8328553;28;20075;-73
2022/01/25 09:55:01;;;;;;;30.30;11.52;;;;;;;2.54;99.79;100589.53;8328235;28;20405;-73
2022/01/25 09:59:02;;;;;;;26.02;10.98;;;;;;;2.60;99.26;100575.34;8329591;28;20523;-73
2022/01/25 10:03:18;;;;;;;26.40;11.35;;;;;;;2.69;98.63;100582.03;8328686;28;20046;-73
2022/01/25 10:07:28;;;;;;;27.73;10.60;;;;;;;2.81;98.64;100580.25;8329360;28;20168;-72
2022/01/25 10:11:29;;;;;;;29.13;11.00;;;;;;;2.79;97.80;100571.66;8329440;28;20387;-72
2022/01/25 10:15:30;;;;;;;26.73;11.50;;;;;;;2.86;98.07;100561.72;8342588;28;20054;-72
2022/01/25 10:19:31;;;;;;;66.75;24.83;;;;;;;2.93;97.92;100567.78;8326994;28;20045;-74
2022/01/25 10:23:34;;;;;;;34.05;12.57;;;;;;;2.98;98.15;100559.13;8315169;28;20132;-73
2022/01/25 10:28:10;;;;;;;27.73;11.63;;;;;;;3.06;97.96;100550.00;8362039;28;20140;-73
2022/01/25 10:32:31;;;;;;;26.88;12.10;;;;;;;3.13;96.97;100540.03;8362260;28;20052;-73
2022/01/25 10:36:33;;;;;;;26.08;10.15;;;;;;;3.15;96.66;100543.31;8357890;28;20077;-74
2022/01/25 10:40:36;;;;;;;23.05;9.57;;;;;;;3.14;96.62;100547.00;8358591;28;20570;-74
2022/01/25 10:44:53;;;;;;;26.25;10.05;;;;;;;3.18;96.64;100549.00;8324203;28;20049;-73
2022/01/25 10:49:06;;;;;;;24.45;9.52;;;;;;;3.23;96.66;100534.97;8326421;28;20049;-72
2022/01/25 10:53:08;;;;;;;22.25;9.43;;;;;;;3.38;95.72;100538.09;8325611;28;20057;-72
2022/01/25 10:57:20;;;;;;;30.80;10.23;;;;;;;3.40;95.58;100530.63;8325170;28;20053;-72
2022/01/25 11:01:32;;;;;;;25.55;9.43;;;;;;;3.41;96.18;100526.94;8324976;28;20042;-74
2022/01/25 11:05:35;;;;;;;24.02;9.00;;;;;;;3.42;96.08;100528.56;8347011;28;20053;-73
2022/01/25 11:09:41;;;;;;;25.05;9.52;;;;;;;3.43;95.56;100527.53;8360417;28;20059;-73
2022/01/25 11:13:47;;;;;;;24.35;9.20;;;;;;;3.37;95.68;100531.09;8363510;28;20144;-73
2022/01/25 11:17:48;;;;;;;102.45;34.88;;;;;;;3.35;96.10;100533.19;8368090;28;20131;-73
2022/01/25 11:21:51;;;;;;;47.50;27.50;;;;;;;3.35;96.32;100517.97;8367666;28;20057;-73
2022/01/25 11:25:54;;;;;;;498.23;178.60;;;;;;;3.40;95.76;100525.28;8351868;28;20050;-73
2022/01/25 11:30:00;;;;;;;451.10;180.57;;;;;;;3.45;95.45;100528.09;8335313;28;20057;-73
2022/01/25 11:34:01;;;;;;;30.35;13.73;;;;;;;3.47;94.93;100510.00;8363252;28;20065;-72
2022/01/25 11:38:03;;;;;;;30.60;12.75;;;;;;;3.47;95.19;100520.69;8333846;28;20056;-74
2022/01/25 11:42:06;;;;;;;24.17;9.60;;;;;;;3.37;95.61;100515.09;8333234;28;20520;-73
2022/01/25 11:46:07;;;;;;;22.00;8.27;;;;;;;3.34;96.03;100510.19;8332076;28;20050;-73
2022/01/25 11:50:10;;;;;;;19.63;8.18;;;;;;;3.29;96.17;100507.38;8334201;28;20053;-73
2022/01/25 11:54:11;;;;;;;52.50;29.77;;;;;;;3.29;96.20;100502.84;8333771;28;20456;-72
2022/01/25 11:58:25;;;;;;;20.38;9.23;;;;;;;3.32;95.24;100499.75;8333789;28;20052;-72
2022/01/25 12:02:46;;;;;;;18.55;7.60;;;;;;;3.27;95.11;100501.47;8333588;28;20049;-72
2022/01/25 12:07:00;;;;;;;16.65;7.25;;;;;;;3.34;95.12;100494.16;8333502;28;20049;-73
2022/01/25 12:11:15;;;;;;;20.10;7.00;;;;;;;3.38;94.85;100500.69;8333186;28;20460;-73
2022/01/25 12:15:19;;;;;;;17.77;7.35;;;;;;;3.34;94.56;100510.19;8331903;28;20057;-73
2022/01/25 12:19:34;;;;;;;15.30;6.40;;;;;;;3.35;94.79;100506.47;8333230;28;20104;-73
2022/01/25 12:23:44;;;;;;;70.40;27.67;;;;;;;3.45;94.08;100496.06;8332824;28;20124;-73
2022/01/25 12:27:57;;;;;;;61.00;32.33;;;;;;;3.43;94.01;100497.34;8345271;28;20099;-73
2022/01/25 12:32:20;;;;;;;16.45;8.18;;;;;;;3.55;94.32;100490.16;8332905;28;20049;-73
2022/01/25 12:36:35;;;;;;;17.10;6.60;;;;;;;3.57;94.42;100483.53;8332573;28;20132;-73
2022/01/25 12:40:40;;;;;;;14.93;6.80;;;;;;;3.65;94.63;100491.22;8332712;28;20053;-73
2022/01/25 12:44:40;;;;;;;11.05;5.50;;;;;;;3.72;94.37;100481.25;8332091;28;20611;-74
2022/01/25 12:48:47;;;;;;;14.95;6.40;;;;;;;3.71;93.95;100479.63;8332099;28;20053;-73
2022/01/25 12:52:49;;;;;;;16.13;6.78;;;;;;;3.61;94.38;100484.72;8332123;28;20149;-72
2022/01/25 12:56:50;;;;;;;16.52;7.65;;;;;;;3.47;94.64;100488.63;8331824;28;20045;-74
2022/01/25 13:00:53;;;;;;;19.08;7.72;;;;;;;3.38;95.05;100479.34;8330781;28;20053;-73
2022/01/25 13:04:54;;;;;;;17.08;6.95;;;;;;;3.31;95.62;100478.59;8331465;28;20056;-73
2022/01/25 13:13:22;;;;;;;22.23;8.15;;;;;;;3.23;96.14;100477.06;8338503;28;20083;-73
2022/01/25 13:17:25;;;;;;;18.90;7.97;;;;;;;3.17;96.76;100474.50;8298308;28;20050;-74
2022/01/25 13:21:27;;;;;;;17.98;7.80;;;;;;;3.19;97.13;100483.09;8326801;28;20037;-74
2022/01/25 13:25:35;;;;;;;17.58;8.15;;;;;;;3.33;96.60;100476.53;8331928;28;20057;-74
2022/01/25 13:34:01;;;;;;;17.33;7.93;;;;;;;3.26;96.22;100473.13;8338459;28;20063;-73
2022/01/25 13:38:04;;;;;;;18.35;7.75;;;;;;;3.23;96.44;100477.06;8330605;28;20050;-74
2022/01/25 13:42:09;;;;;;;16.85;7.95;;;;;;;3.27;96.59;100474.78;8333867;28;20098;-72
2022/01/25 13:46:13;;;;;;;35.42;12.48;;;;;;;3.37;96.64;100475.03;8330361;28;20080;-73
2022/01/25 13:50:14;;;;;;;22.73;10.05;;;;;;;3.36;95.99;100476.06;8343913;28;20041;-73
2022/01/25 13:54:17;;;;;;;27.30;11.82;;;;;;;3.35;95.70;100469.09;8359804;28;20053;-73
2022/01/25 13:58:26;;;;;;;19.52;10.85;;;;;;;3.28;95.87;100473.69;8330101;28;20400;-73
2022/01/25 14:02:26;;;;;;;18.83;8.53;;;;;;;3.24;95.94;100475.22;8330703;28;20053;-73
2022/01/25 14:06:34;;;;;;;18.08;8.73;;;;;;;3.21;96.26;100473.00;8328697;28;20756;-73
2022/01/25 14:10:35;;;;;;;22.17;8.53;;;;;;;3.19;96.42;100464.41;8295808;28;20057;-73
2022/01/25 14:23:26;;;;;;;16.00;8.80;;;;;;;3.10;97.29;100471.09;8361822;28;20052;-74
2022/01/25 14:27:32;;;;;;;16.23;7.30;;;;;;;3.09;97.12;100464.94;8312551;28;20057;-73
2022/01/25 14:31:41;;;;;;;17.35;7.78;;;;;;;3.11;97.23;100467.41;8333900;28;20048;-72
2022/01/25 14:35:43;;;;;;;;;;;;;;;3.08;97.31;100462.50;8336557;28;20049;-73
2022/01/25 14:39:44;;;;;;;13.65;6.40;;;;;;;3.08;97.21;100462.50;8295321;28;19921;-73
2022/01/25 14:43:53;;;;;;;14.73;7.18;;;;;;;2.98;97.08;100463.84;8331478;28;20053;-73
2022/01/25 14:47:54;;;;;;;13.07;6.05;;;;;;;2.94;97.30;100468.03;8308169;28;20054;-72
2022/01/25 14:52:06;;;;;;;14.60;6.45;;;;;;;2.91;97.63;100462.31;8305805;28;20073;-73
2022/01/25 14:56:10;;;;;;;13.45;6.25;;;;;;;2.87;97.59;100466.47;8342721;28;20049;-74
2022/01/25 15:00:11;;;;;;;13.55;6.38;;;;;;;2.82;97.87;100469.81;8341315;28;20052;-73
2022/01/25 15:04:12;;;;;;;14.18;6.47;;;;;;;2.81;97.86;100478.84;8336333;28;20091;-73
2022/01/25 15:08:15;;;;;;;13.27;6.00;;;;;;;2.79;98.05;100480.94;8336454;28;20091;-73
2022/01/25 15:12:23;;;;;;;14.70;5.70;;;;;;;2.80;97.96;100487.91;8336164;28;20187;-74
2022/01/25 15:16:23;;;;;;;11.50;5.38;;;;;;;2.77;98.37;100491.03;8336068;28;20562;-73
2022/01/25 15:20:24;;;;;;;13.38;6.15;;;;;;;2.80;98.03;100493.22;8336123;28;20058;-73
2022/01/25 15:24:29;;;;;;;15.07;6.10;;;;;;;2.77;98.23;100493.69;8338964;28;20122;-72
2022/01/25 15:28:38;;;;;;;14.18;6.10;;;;;;;2.77;98.07;100493.69;8339254;28;20049;-72
2022/01/25 15:32:39;;;;;;;20.13;8.00;;;;;;;2.75;98.12;100493.09;8335842;28;20054;-73
2022/01/25 15:36:40;;;;;;;35.95;13.57;;;;;;;2.71;98.20;100494.59;8335726;28;20053;-74
2022/01/25 15:40:41;;;;;;;31.17;12.15;;;;;;;2.68;98.51;100503.03;8311174;28;20049;-73
2022/01/25 15:44:45;;;;;;;98.43;32.25;;;;;;;2.64;98.54;100507.19;8323427;28;20095;-73
2022/01/25 15:48:46;;;;;;;29.05;13.52;;;;;;;2.65;99.16;100511.47;8313238;28;20104;-74
2022/01/25 15:52:47;;;;;;;27.10;11.48;;;;;;;2.65;98.80;100500.81;8328404;28;20409;-73
2022/01/25 15:56:52;;;;;;;32.95;14.77;;;;;;;2.66;98.78;100510.44;8333585;28;20057;-74
2022/01/25 16:00:54;;;;;;;73.40;28.35;;;;;;;2.63;99.21;100515.41;8333164;28;20049;-72
2022/01/25 16:04:55;;;;;;;28.02;12.05;;;;;;;2.65;99.20;100511.47;8298934;28;20053;-72
2022/01/25 16:08:56;;;;;;;38.80;15.68;;;;;;;2.63;99.02;100507.41;8333893;28;20069;-72
2022/01/25 16:12:57;;;;;;;25.02;10.85;;;;;;;2.61;99.30;100504.97;8341306;28;20061;-72
2022/01/25 16:16:59;;;;;;;27.77;10.25;;;;;;;2.60;99.30;100514.00;8333466;28;20075;-71
2022/01/25 16:20:59;;;;;;;28.65;12.90;;;;;;;2.56;99.45;100512.81;8334178;28;20382;-71
2022/01/25 16:25:00;;;;;;;30.23;12.50;;;;;;;2.54;99.71;100514.88;8333490;28;20504;-71
2022/01/25 16:29:01;;;;;;;29.17;12.10;;;;;;;2.52;99.63;100511.63;8344731;28;20069;-72
2022/01/25 16:33:04;;;;;;;32.10;12.60;;;;;;;2.54;100.00;100520.22;8322031;28;20076;-73
2022/01/25 16:37:07;;;;;;;30.17;12.95;;;;;;;2.52;100.00;100511.63;8333846;28;20049;-72
2022/01/25 16:41:08;;;;;;;31.13;12.63;;;;;;;2.56;99.95;100512.81;8332372;28;20492;-73
2022/01/25 16:45:13;;;;;;;25.85;12.57;;;;;;;2.59;100.00;100517.72;8340402;28;20083;-72
2022/01/25 16:49:14;;;;;;;30.38;12.45;;;;;;;2.55;99.82;100517.34;8348345;28;20394;-73
2022/01/25 16:53:15;;;;;;;32.75;12.90;;;;;;;2.54;100.00;100509.53;8330996;28;20077;-71
2022/01/25 16:57:16;;;;;;;31.38;13.20;;;;;;;2.56;100.00;100512.81;8332909;28;20049;-74
2022/01/25 17:01:17;;;;;;;32.70;12.30;;;;;;;2.47;100.00;100509.63;8332100;28;20439;-72
2022/01/25 17:05:18;;;;;;;26.15;11.48;;;;;;;2.44;100.00;100514.56;8331793;28;20099;-72
2022/01/25 17:09:19;;;;;;;28.48;11.70;;;;;;;2.45;100.00;100516.22;8332538;28;20061;-72
2022/01/25 17:13:21;;;;;;;30.73;12.65;;;;;;;2.48;100.00;100510.47;8332095;28;20140;-73
2022/01/25 17:17:22;;;;;;;36.67;14.75;;;;;;;2.44;100.00;100503.91;8332193;28;20042;-72
2022/01/25 17:21:23;;;;;;;30.60;12.77;;;;;;;2.42;100.00;100506.00;8337205;28;20059;-73
2022/01/25 17:25:26;;;;;;;24.00;10.73;;;;;;;2.47;100.00;100498.16;8365003;28;20067;-73
2022/01/25 17:29:28;;;;;;;29.30;10.95;;;;;;;2.45;100.00;100495.69;8346386;28;20041;-71
2022/01/25 17:33:49;;;;;;;26.60;10.48;;;;;;;2.44;100.00;100493.25;8332873;28;20053;-71
2022/01/25 17:37:50;;;;;;;56.75;27.48;;;;;;;2.38;100.00;100488.81;8277784;28;20052;-72
2022/01/25 17:41:51;;;;;;;35.47;17.65;;;;;;;2.39;100.00;100496.59;8308232;28;20049;-70
2022/01/25 17:45:53;;;;;;;33.03;15.52;;;;;;;2.38;100.00;100504.81;8326150;28;20041;-72
2022/01/25 17:49:54;;;;;;;23.17;10.07;;;;;;;2.33;100.00;100496.63;8343147;28;20056;-71
2022/01/25 17:53:55;;;;;;;20.05;8.70;;;;;;;2.34;100.00;100498.28;8336107;28;20136;-70
2022/01/25 17:57:55;;;;;;;37.00;15.48;;;;;;;2.39;100.00;100490.44;8328477;28;20099;-71
2022/01/25 18:01:59;;;;;;;25.55;9.27;;;;;;;2.40;100.00;100492.88;8336288;28;20049;-71
2022/01/25 18:06:01;;;;;;;21.73;10.38;;;;;;;2.36;100.00;100497.03;8294721;28;20070;-71
2022/01/25 18:10:04;;;;;;;17.55;7.90;;;;;;;2.38;100.00;100494.16;8335859;28;20063;-72
2022/01/25 18:14:05;;;;;;;26.70;10.60;;;;;;;2.44;100.00;100493.25;8339511;28;20480;-71
2022/01/25 18:18:07;;;;;;;78.03;31.33;;;;;;;2.41;100.00;100488.38;8334857;28;20041;-71
2022/01/25 18:22:08;;;;;;;34.35;14.18;;;;;;;2.41;100.00;100499.03;8328527;28;20429;-72
2022/01/25 18:30:16;;;;;;;36.63;14.23;;;;;;;2.37;100.00;100487.19;8320094;28;20053;-72
2022/01/25 18:34:17;;;;;;;30.48;12.88;;;;;;;2.46;100.00;100481.34;8333267;28;20127;-73
2022/01/25 18:38:20;;;;;;;39.58;17.15;;;;;;;2.41;100.00;100483.84;8362972;28;20060;-73
2022/01/25 18:42:22;;;;;;;40.60;18.13;;;;;;;2.39;100.00;100483.25;8363012;28;20084;-73
2022/01/25 18:46:23;;;;;;;25.55;12.05;;;;;;;2.38;100.00;100494.16;8358414;28;20489;-72
2022/01/25 18:50:24;;;;;;;46.47;22.48;;;;;;;2.35;100.00;100489.25;8328547;28;20068;-73
2022/01/25 18:54:46;;;;;;;69.40;31.15;;;;;;;2.37;100.00;100487.19;8332245;28;20072;-73
2022/01/25 18:58:48;;;;;;;25.52;12.43;;;;;;;2.42;100.00;100490.00;8325404;28;20045;-73
2022/01/25 19:02:50;;;;;;;53.78;23.70;;;;;;;2.43;100.00;100487.09;8328437;28;20103;-74
2022/01/25 19:06:54;;;;;;;50.15;22.05;;;;;;;2.40;100.00;100492.88;8323696;28;20056;-73
2022/01/25 19:10:55;;;;;;;37.95;17.77;;;;;;;2.45;100.00;100484.22;8275721;28;20046;-72
2022/01/25 19:14:56;;;;;;;36.50;17.58;;;;;;;2.38;100.00;100488.81;8324827;28;20060;-74
2022/01/25 19:18:58;;;;;;;31.80;14.40;;;;;;;2.42;100.00;100484.66;8304924;28;20116;-74
2022/01/25 19:23:03;;;;;;;31.50;14.15;;;;;;;2.38;100.00;100483.50;8325770;28;20076;-74
2022/01/25 19:27:04;;;;;;;29.17;12.38;;;;;;;2.40;100.00;100481.41;8340411;28;20121;-74
2022/01/25 19:31:07;;;;;;;24.88;12.35;;;;;;;2.34;100.00;100482.28;8343177;28;20049;-73
2022/01/25 19:35:09;;;;;;;26.83;12.05;;;;;;;2.36;100.00;100480.22;8312877;28;20072;-73
2022/01/25 19:39:12;;;;;;;23.15;11.98;;;;;;;2.41;100.00;100485.69;8335940;28;20056;-73
2022/01/25 19:43:17;;;;;;;25.25;11.18;;;;;;;2.39;100.00;100477.09;8326525;28;20046;-73
2022/01/25 19:47:19;;;;;;;24.40;11.80;;;;;;;2.35;100.00;100483.91;8334912;28;20060;-73
2022/01/25 19:51:24;;;;;;;52.90;22.85;;;;;;;2.41;100.00;100472.38;8336258;28;20488;-74
2022/01/25 19:55:33;;;;;;;49.20;19.83;;;;;;;2.39;100.00;100479.75;8319090;28;20045;-73
2022/01/25 19:59:34;;;;;;;60.53;25.17;;;;;;;2.34;100.00;100479.63;8316124;28;20469;-73
2022/01/25 20:03:38;;;;;;;72.47;28.30;;;;;;;2.31;100.00;100478.22;8367232;28;20045;-75
2022/01/25 20:07:40;;;;;;;33.67;16.52;;;;;;;2.32;100.00;100479.03;8313259;28;20056;-74
2022/01/25 20:11:41;;;;;;;46.65;24.35;;;;;;;2.31;100.00;100483.56;8332910;28;20046;-74
2022/01/25 20:15:43;;;;;;;34.72;17.73;;;;;;;2.32;100.00;100479.03;8330829;28;20077;-74
2022/01/25 20:19:44;;;;;;;85.82;36.10;;;;;;;2.37;100.00;100477.34;8329379;28;20057;-74
2022/01/25 20:28:01;;;;;;;26.88;13.00;;;;;;;2.37;100.00;100476.53;8332078;28;20045;-74
2022/01/25 20:32:05;;;;;;;25.83;11.80;;;;;;;2.39;100.00;100469.09;8314883;28;20057;-73
2022/01/25 20:36:07;;;;;;;24.17;12.18;;;;;;;2.39;100.00;100479.75;8347021;28;20050;-74
2022/01/25 20:40:09;;;;;;;27.65;13.27;;;;;;;2.41;100.00;100475.03;8331927;28;20046;-74
2022/01/25 20:44:10;;;;;;;24.88;12.80;;;;;;;2.38;100.00;100473.63;8330697;28;20053;-74
2022/01/25 20:48:12;;;;;;;23.55;11.80;;;;;;;2.38;100.00;100478.94;8331060;28;20037;-74